Thursday, March 30, 2017, 2:25 PM EDT

KUNV, State College, University Park Airport

Location: State College, PA, United States Lat: 40.85
Local Time: 2:25 PM EDT (18:25 GMT) Lon: -77.85
Time Zone: US/Eastern Elev: 1240 ft

Show me the last for .
Show Decoded

2017-03-30 13:53 METAR KUNV 301753Z 11010KT 10SM VCSH SCT043 OVC055 06/M03 A3010 =
2017-03-30 12:53 METAR KUNV 301653Z 10010KT 10SM OVC065 06/M04 A3013 =
2017-03-30 11:53 METAR KUNV 301553Z 09010KT 10SM OVC065 05/M04 A3016 =
2017-03-30 10:53 METAR KUNV 301453Z 11007KT 10SM SCT065 OVC100 04/M06 A3019 RMK LTG DSNT SW =
2017-03-30 09:53 METAR KUNV 301353Z 10009KT 10SM SCT065 OVC100 04/M05 A3019 =
2017-03-30 08:53 METAR KUNV 301253Z 10005KT 10SM OVC110 03/M04 A3021 =
2017-03-30 07:53 METAR KUNV 301153Z 06004KT 10SM OVC110 02/M03 A3023 =
2017-03-30 06:53 METAR KUNV 301053Z 06005KT 10SM SCT120 01/M03 A3023 =
2017-03-30 05:53 METAR KUNV 300953Z 07004KT 10SM SCT110 02/M03 A3022 =
2017-03-30 05:35 METAR KUNV 300935Z AUTO 02005KT 10SM SCT120 02/M03 A3022 RMK AO2 T00201027 =
2017-03-30 05:15 METAR KUNV 300915Z AUTO 05004KT 10SM SCT120 02/M03 A3022 RMK AO2 T00211030 =
2017-03-30 04:55 METAR KUNV 300855Z AUTO 03004KT 10SM CLR 02/M03 A3022 RMK AO2 T00211029 =
2017-03-30 04:35 METAR KUNV 300835Z AUTO 05003KT 10SM CLR 02/M03 A3021 RMK AO2 T00211029 =
2017-03-30 04:15 METAR KUNV 300815Z AUTO 04003KT 10SM CLR 02/M03 A3021 RMK AO2 T00231028 =
2017-03-30 03:55 METAR KUNV 300755Z AUTO 03004KT 10SM CLR 03/M03 A3021 RMK AO2 T00251030 =
2017-03-30 03:35 METAR KUNV 300735Z AUTO 03005KT 10SM CLR 03/M03 A3022 RMK AO2 LTG DSNT W
                 T00261030 =
2017-03-30 03:15 METAR KUNV 300715Z AUTO 04007KT 10SM CLR 03/M03 A3022 RMK AO2 T00291028 =
2017-03-30 02:55 METAR KUNV 300655Z AUTO 02005KT 10SM CLR 03/M03 A3022 RMK AO2 T00311030 =
2017-03-30 02:35 METAR KUNV 300635Z AUTO 04005KT 10SM CLR 03/M03 A3022 RMK AO2 T00311032 =
2017-03-30 02:15 METAR KUNV 300615Z AUTO 03006KT 10SM CLR 03/M03 A3021 RMK AO2 T00321031 =
2017-03-30 01:55 METAR KUNV 300555Z AUTO 02006KT 10SM CLR 03/M03 A3020 RMK AO2 T00321035 10100
                 20027 =
2017-03-30 01:35 METAR KUNV 300535Z AUTO 06009KT 10SM CLR 03/M03 A3018 RMK AO2 T00301033 =
2017-03-30 01:15 METAR KUNV 300515Z AUTO 07006KT 10SM CLR 04/M03 A3018 RMK AO2 T00351031 =
2017-03-30 00:55 METAR KUNV 300455Z AUTO 07009KT 10SM CLR 04/M03 A3018 RMK AO2 T00401027 =
2017-03-30 00:35 METAR KUNV 300435Z AUTO 05008KT 10SM CLR 04/M02 A3020 RMK AO2 LTG DSNT W
                 T00421023 =
2017-03-30 00:15 METAR KUNV 300415Z AUTO 06008G15KT 10SM CLR 05/M03 A3020 RMK AO2 T00471026 =
2017-03-29 23:55 METAR KUNV 300355Z AUTO 04012G18KT 10SM CLR 05/M02 A3020 RMK AO2 T00541024
                 401360054 =
2017-03-29 23:35 METAR KUNV 300335Z AUTO 05008G14KT 10SM CLR 06/M02 A3020 RMK AO2 T00561023 =
2017-03-29 23:15 METAR KUNV 300315Z AUTO 06006KT 10SM CLR 06/M02 A3021 RMK AO2 T00571024 =
2017-03-29 22:55 METAR KUNV 300255Z AUTO 05009KT 10SM CLR 06/M02 A3021 RMK AO2 T00641021 =
2017-03-29 22:35 METAR KUNV 300235Z AUTO 05007KT 10SM CLR 07/M02 A3022 RMK AO2 T00661020 =
2017-03-29 22:15 METAR KUNV 300215Z AUTO 06006KT 10SM CLR 07/M02 A3021 RMK AO2 T00651021 =
2017-03-29 20:53 METAR KUNV 300053Z 04004KT 10SM SKC 09/M02 A3020 =
2017-03-29 19:53 METAR KUNV 292353Z 03009KT 10SM SKC 10/M02 A3017 =
2017-03-29 18:53 METAR KUNV 292253Z 02011KT 10SM SKC 12/M02 A3015 =
2017-03-29 17:53 METAR KUNV 292153Z 03010KT 10SM SKC 13/M02 A3014 =
2017-03-29 16:53 METAR KUNV 292053Z 03014G19KT 10SM SKC 13/M01 A3013 =
2017-03-29 15:53 METAR KUNV 291953Z 03009KT 10SM SKC 13/00 A3013 =
2017-03-29 14:53 METAR KUNV 291853Z 05008KT 10SM SCT050 13/00 A3014 =

Support USWX by starting your Amazon purchase here.